sensor_id;sensor_type;location;lat;lon;timestamp;P1;durP1;ratioP1;P2;durP2;ratioP2
75885;SDS011;64561;44.018;10.144;2023-02-11T00:01:10;13.57;;;7.75;;
75885;SDS011;64561;44.018;10.144;2023-02-11T00:03:42;16.17;;;9.13;;
75885;SDS011;64561;44.018;10.144;2023-02-11T00:06:09;17.60;;;9.52;;
75885;SDS011;64561;44.018;10.144;2023-02-11T00:08:37;17.52;;;9.75;;
75885;SDS011;64561;44.018;10.144;2023-02-11T00:11:04;27.20;;;14.82;;
75885;SDS011;64561;44.018;10.144;2023-02-11T00:13:31;17.52;;;9.98;;
75885;SDS011;64561;44.018;10.144;2023-02-11T00:15:58;22.30;;;11.80;;
75885;SDS011;64561;44.018;10.144;2023-02-11T00:18:25;15.70;;;9.18;;
75885;SDS011;64561;44.018;10.144;2023-02-11T00:20:51;42.38;;;19.58;;
75885;SDS011;64561;44.018;10.144;2023-02-11T00:23:18;60.63;;;31.27;;
75885;SDS011;64561;44.018;10.144;2023-02-11T00:25:45;19.80;;;11.90;;
75885;SDS011;64561;44.018;10.144;2023-02-11T00:28:12;19.30;;;10.23;;
75885;SDS011;64561;44.018;10.144;2023-02-11T00:30:39;20.40;;;10.48;;
75885;SDS011;64561;44.018;10.144;2023-02-11T00:33:07;14.85;;;9.35;;
75885;SDS011;64561;44.018;10.144;2023-02-11T00:35:35;39.40;;;17.95;;
75885;SDS011;64561;44.018;10.144;2023-02-11T00:38:06;21.95;;;11.93;;
75885;SDS011;64561;44.018;10.144;2023-02-11T00:40:33;14.73;;;8.55;;
75885;SDS011;64561;44.018;10.144;2023-02-11T00:42:59;12.35;;;8.02;;
75885;SDS011;64561;44.018;10.144;2023-02-11T00:45:26;16.02;;;8.48;;
75885;SDS011;64561;44.018;10.144;2023-02-11T00:47:56;20.33;;;9.75;;
75885;SDS011;64561;44.018;10.144;2023-02-11T00:50:23;15.13;;;7.70;;
75885;SDS011;64561;44.018;10.144;2023-02-11T00:52:50;14.00;;;8.05;;
75885;SDS011;64561;44.018;10.144;2023-02-11T00:55:17;17.27;;;8.40;;
75885;SDS011;64561;44.018;10.144;2023-02-11T00:57:44;12.95;;;8.05;;
75885;SDS011;64561;44.018;10.144;2023-02-11T01:00:11;14.63;;;7.85;;
75885;SDS011;64561;44.018;10.144;2023-02-11T01:02:39;15.23;;;7.55;;
75885;SDS011;64561;44.018;10.144;2023-02-11T01:05:06;14.23;;;8.00;;
75885;SDS011;64561;44.018;10.144;2023-02-11T01:07:33;13.07;;;7.95;;
75885;SDS011;64561;44.018;10.144;2023-02-11T01:10:00;13.38;;;7.75;;
75885;SDS011;64561;44.018;10.144;2023-02-11T01:12:28;14.15;;;7.22;;
75885;SDS011;64561;44.018;10.144;2023-02-11T01:14:56;14.95;;;6.78;;
75885;SDS011;64561;44.018;10.144;2023-02-11T01:17:23;10.70;;;6.40;;
75885;SDS011;64561;44.018;10.144;2023-02-11T01:19:50;15.73;;;7.75;;
75885;SDS011;64561;44.018;10.144;2023-02-11T01:22:17;10.82;;;7.15;;
75885;SDS011;64561;44.018;10.144;2023-02-11T01:24:45;14.05;;;8.43;;
75885;SDS011;64561;44.018;10.144;2023-02-11T01:27:12;13.73;;;7.38;;
75885;SDS011;64561;44.018;10.144;2023-02-11T01:29:39;11.63;;;6.80;;
75885;SDS011;64561;44.018;10.144;2023-02-11T01:32:06;10.50;;;6.38;;
75885;SDS011;64561;44.018;10.144;2023-02-11T01:34:33;11.90;;;6.88;;
75885;SDS011;64561;44.018;10.144;2023-02-11T01:37:00;12.48;;;8.35;;
75885;SDS011;64561;44.018;10.144;2023-02-11T01:39:27;14.48;;;8.18;;
75885;SDS011;64561;44.018;10.144;2023-02-11T01:41:54;16.55;;;9.05;;
75885;SDS011;64561;44.018;10.144;2023-02-11T01:46:59;18.02;;;9.68;;
75885;SDS011;64561;44.018;10.144;2023-02-11T01:49:27;15.27;;;9.05;;
75885;SDS011;64561;44.018;10.144;2023-02-11T01:51:59;13.93;;;8.13;;
75885;SDS011;64561;44.018;10.144;2023-02-11T01:54:29;14.85;;;9.02;;
75885;SDS011;64561;44.018;10.144;2023-02-11T01:57:18;14.63;;;7.55;;
75885;SDS011;64561;44.018;10.144;2023-02-11T02:02:55;11.15;;;6.97;;
75885;SDS011;64561;44.018;10.144;2023-02-11T02:05:29;14.80;;;7.40;;
75885;SDS011;64561;44.018;10.144;2023-02-11T02:08:02;11.07;;;6.47;;
75885;SDS011;64561;44.018;10.144;2023-02-11T02:10:36;10.95;;;5.85;;
75885;SDS011;64561;44.018;10.144;2023-02-11T02:13:09;11.77;;;6.57;;
75885;SDS011;64561;44.018;10.144;2023-02-11T02:15:36;11.90;;;5.95;;
75885;SDS011;64561;44.018;10.144;2023-02-11T02:18:18;9.85;;;5.80;;
75885;SDS011;64561;44.018;10.144;2023-02-11T02:20:56;9.82;;;5.65;;
75885;SDS011;64561;44.018;10.144;2023-02-11T02:26:26;11.95;;;6.63;;
75885;SDS011;64561;44.018;10.144;2023-02-11T02:35:06;15.10;;;9.23;;
75885;SDS011;64561;44.018;10.144;2023-02-11T02:37:52;16.40;;;8.70;;
75885;SDS011;64561;44.018;10.144;2023-02-11T02:40:31;14.20;;;8.55;;
75885;SDS011;64561;44.018;10.144;2023-02-11T02:43:22;12.77;;;6.88;;
75885;SDS011;64561;44.018;10.144;2023-02-11T02:45:51;16.30;;;9.05;;
75885;SDS011;64561;44.018;10.144;2023-02-11T02:51:01;12.88;;;7.72;;
75885;SDS011;64561;44.018;10.144;2023-02-11T03:02:23;15.80;;;7.65;;
75885;SDS011;64561;44.018;10.144;2023-02-11T03:05:20;15.00;;;7.22;;
75885;SDS011;64561;44.018;10.144;2023-02-11T03:08:15;12.02;;;7.10;;
75885;SDS011;64561;44.018;10.144;2023-02-11T03:10:44;10.85;;;7.13;;
75885;SDS011;64561;44.018;10.144;2023-02-11T03:13:15;9.80;;;5.85;;
75885;SDS011;64561;44.018;10.144;2023-02-11T03:15:49;14.95;;;10.40;;
75885;SDS011;64561;44.018;10.144;2023-02-11T03:18:20;14.25;;;8.77;;
75885;SDS011;64561;44.018;10.144;2023-02-11T03:20:51;15.00;;;8.15;;
75885;SDS011;64561;44.018;10.144;2023-02-11T03:23:27;12.57;;;6.82;;
75885;SDS011;64561;44.018;10.144;2023-02-11T03:32:03;13.20;;;7.85;;
75885;SDS011;64561;44.018;10.144;2023-02-11T03:34:52;18.38;;;9.30;;
75885;SDS011;64561;44.018;10.144;2023-02-11T03:37:30;18.13;;;9.25;;
75885;SDS011;64561;44.018;10.144;2023-02-11T03:40:04;21.02;;;10.98;;
75885;SDS011;64561;44.018;10.144;2023-02-11T03:42:36;33.03;;;19.20;;
75885;SDS011;64561;44.018;10.144;2023-02-11T03:45:09;22.88;;;12.13;;
75885;SDS011;64561;44.018;10.144;2023-02-11T03:47:40;17.35;;;10.35;;
75885;SDS011;64561;44.018;10.144;2023-02-11T03:50:12;24.80;;;14.90;;
75885;SDS011;64561;44.018;10.144;2023-02-11T03:52:41;17.08;;;9.45;;
75885;SDS011;64561;44.018;10.144;2023-02-11T03:55:15;17.27;;;8.52;;
75885;SDS011;64561;44.018;10.144;2023-02-11T03:57:43;12.85;;;7.03;;
75885;SDS011;64561;44.018;10.144;2023-02-11T04:00:11;14.95;;;7.18;;
75885;SDS011;64561;44.018;10.144;2023-02-11T04:02:39;14.55;;;7.63;;
75885;SDS011;64561;44.018;10.144;2023-02-11T04:05:07;15.48;;;9.25;;
75885;SDS011;64561;44.018;10.144;2023-02-11T04:07:35;13.38;;;7.20;;
75885;SDS011;64561;44.018;10.144;2023-02-11T04:10:02;14.20;;;6.95;;
75885;SDS011;64561;44.018;10.144;2023-02-11T04:12:29;15.75;;;10.15;;
75885;SDS011;64561;44.018;10.144;2023-02-11T04:14:56;16.83;;;9.38;;
75885;SDS011;64561;44.018;10.144;2023-02-11T04:17:23;19.17;;;8.20;;
75885;SDS011;64561;44.018;10.144;2023-02-11T04:19:50;13.90;;;8.15;;
75885;SDS011;64561;44.018;10.144;2023-02-11T04:22:16;26.35;;;15.82;;
75885;SDS011;64561;44.018;10.144;2023-02-11T04:24:43;17.17;;;10.98;;
75885;SDS011;64561;44.018;10.144;2023-02-11T04:27:10;13.68;;;8.00;;
75885;SDS011;64561;44.018;10.144;2023-02-11T04:29:37;15.35;;;7.30;;
75885;SDS011;64561;44.018;10.144;2023-02-11T04:32:04;11.80;;;5.70;;
75885;SDS011;64561;44.018;10.144;2023-02-11T04:34:30;21.38;;;13.43;;
75885;SDS011;64561;44.018;10.144;2023-02-11T04:36:57;31.77;;;19.23;;
75885;SDS011;64561;44.018;10.144;2023-02-11T04:39:24;13.27;;;7.57;;
75885;SDS011;64561;44.018;10.144;2023-02-11T04:41:51;11.25;;;6.55;;
75885;SDS011;64561;44.018;10.144;2023-02-11T04:44:18;12.65;;;6.10;;
75885;SDS011;64561;44.018;10.144;2023-02-11T04:46:44;13.32;;;6.20;;
75885;SDS011;64561;44.018;10.144;2023-02-11T04:49:12;10.80;;;6.32;;
75885;SDS011;64561;44.018;10.144;2023-02-11T04:51:40;9.70;;;5.65;;
75885;SDS011;64561;44.018;10.144;2023-02-11T04:54:08;10.13;;;5.60;;
75885;SDS011;64561;44.018;10.144;2023-02-11T04:56:34;10.10;;;5.45;;
75885;SDS011;64561;44.018;10.144;2023-02-11T04:59:01;11.88;;;5.65;;
75885;SDS011;64561;44.018;10.144;2023-02-11T05:01:28;10.32;;;5.45;;
75885;SDS011;64561;44.018;10.144;2023-02-11T05:03:55;14.43;;;5.85;;
75885;SDS011;64561;44.018;10.144;2023-02-11T05:06:22;9.30;;;5.03;;
75885;SDS011;64561;44.018;10.144;2023-02-11T05:08:49;10.27;;;4.88;;
75885;SDS011;64561;44.018;10.144;2023-02-11T05:11:18;12.48;;;4.97;;
75885;SDS011;64561;44.018;10.144;2023-02-11T05:13:46;8.48;;;5.05;;
75885;SDS011;64561;44.018;10.144;2023-02-11T05:16:14;9.48;;;4.85;;
75885;SDS011;64561;44.018;10.144;2023-02-11T05:18:42;6.78;;;3.95;;
75885;SDS011;64561;44.018;10.144;2023-02-11T05:21:11;7.07;;;4.57;;
75885;SDS011;64561;44.018;10.144;2023-02-11T05:23:43;7.95;;;3.85;;
75885;SDS011;64561;44.018;10.144;2023-02-11T05:26:11;8.02;;;5.00;;
75885;SDS011;64561;44.018;10.144;2023-02-11T05:28:39;11.75;;;5.90;;
75885;SDS011;64561;44.018;10.144;2023-02-11T05:31:06;15.85;;;9.10;;
75885;SDS011;64561;44.018;10.144;2023-02-11T05:33:33;21.05;;;10.63;;
75885;SDS011;64561;44.018;10.144;2023-02-11T05:36:01;12.45;;;7.65;;
75885;SDS011;64561;44.018;10.144;2023-02-11T05:38:29;18.02;;;9.80;;
75885;SDS011;64561;44.018;10.144;2023-02-11T05:40:56;17.55;;;9.98;;
75885;SDS011;64561;44.018;10.144;2023-02-11T05:43:22;17.75;;;9.65;;
75885;SDS011;64561;44.018;10.144;2023-02-11T05:45:50;15.20;;;9.15;;
75885;SDS011;64561;44.018;10.144;2023-02-11T05:48:17;20.80;;;10.07;;
75885;SDS011;64561;44.018;10.144;2023-02-11T05:50:44;17.98;;;9.48;;
75885;SDS011;64561;44.018;10.144;2023-02-11T05:53:11;16.17;;;8.38;;
75885;SDS011;64561;44.018;10.144;2023-02-11T05:55:38;22.30;;;9.88;;
75885;SDS011;64561;44.018;10.144;2023-02-11T05:58:05;19.45;;;10.02;;
75885;SDS011;64561;44.018;10.144;2023-02-11T06:00:33;14.85;;;9.25;;
75885;SDS011;64561;44.018;10.144;2023-02-11T06:03:00;15.52;;;8.25;;
75885;SDS011;64561;44.018;10.144;2023-02-11T06:05:29;16.65;;;9.25;;
75885;SDS011;64561;44.018;10.144;2023-02-11T06:07:57;28.10;;;14.07;;
75885;SDS011;64561;44.018;10.144;2023-02-11T06:10:24;22.50;;;10.40;;
75885;SDS011;64561;44.018;10.144;2023-02-11T06:12:51;26.65;;;12.25;;
75885;SDS011;64561;44.018;10.144;2023-02-11T06:15:18;20.35;;;9.07;;
75885;SDS011;64561;44.018;10.144;2023-02-11T06:17:45;17.98;;;8.48;;
75885;SDS011;64561;44.018;10.144;2023-02-11T06:20:12;12.15;;;8.27;;
75885;SDS011;64561;44.018;10.144;2023-02-11T06:22:39;12.45;;;6.60;;
75885;SDS011;64561;44.018;10.144;2023-02-11T06:25:06;13.55;;;7.43;;
75885;SDS011;64561;44.018;10.144;2023-02-11T06:27:33;13.98;;;7.72;;
75885;SDS011;64561;44.018;10.144;2023-02-11T06:30:00;11.50;;;7.25;;
75885;SDS011;64561;44.018;10.144;2023-02-11T06:32:27;11.48;;;7.60;;
75885;SDS011;64561;44.018;10.144;2023-02-11T06:35:09;13.77;;;6.35;;
75885;SDS011;64561;44.018;10.144;2023-02-11T06:37:38;16.33;;;8.05;;
75885;SDS011;64561;44.018;10.144;2023-02-11T06:40:05;11.77;;;6.72;;
75885;SDS011;64561;44.018;10.144;2023-02-11T06:42:32;13.05;;;6.88;;
75885;SDS011;64561;44.018;10.144;2023-02-11T06:44:59;12.80;;;6.55;;
75885;SDS011;64561;44.018;10.144;2023-02-11T06:47:26;15.38;;;7.90;;
75885;SDS011;64561;44.018;10.144;2023-02-11T06:49:53;15.30;;;8.35;;
75885;SDS011;64561;44.018;10.144;2023-02-11T06:52:20;17.02;;;9.00;;
75885;SDS011;64561;44.018;10.144;2023-02-11T06:54:47;14.88;;;8.65;;
75885;SDS011;64561;44.018;10.144;2023-02-11T06:57:13;27.45;;;9.65;;
75885;SDS011;64561;44.018;10.144;2023-02-11T06:59:40;19.95;;;9.57;;
75885;SDS011;64561;44.018;10.144;2023-02-11T07:02:10;18.23;;;9.13;;
75885;SDS011;64561;44.018;10.144;2023-02-11T07:04:37;16.30;;;8.52;;
75885;SDS011;64561;44.018;10.144;2023-02-11T07:07:04;17.88;;;8.25;;
75885;SDS011;64561;44.018;10.144;2023-02-11T07:09:30;17.85;;;8.93;;
75885;SDS011;64561;44.018;10.144;2023-02-11T07:11:57;19.63;;;10.70;;
75885;SDS011;64561;44.018;10.144;2023-02-11T07:14:24;18.33;;;10.38;;
75885;SDS011;64561;44.018;10.144;2023-02-11T07:16:51;18.40;;;10.48;;
75885;SDS011;64561;44.018;10.144;2023-02-11T07:19:18;17.65;;;8.65;;
75885;SDS011;64561;44.018;10.144;2023-02-11T07:21:45;16.77;;;8.77;;
75885;SDS011;64561;44.018;10.144;2023-02-11T07:24:14;11.10;;;6.43;;
75885;SDS011;64561;44.018;10.144;2023-02-11T07:26:41;16.38;;;7.95;;
75885;SDS011;64561;44.018;10.144;2023-02-11T07:29:07;12.60;;;6.90;;
75885;SDS011;64561;44.018;10.144;2023-02-11T07:31:34;14.73;;;7.05;;
75885;SDS011;64561;44.018;10.144;2023-02-11T07:34:01;10.07;;;6.50;;
75885;SDS011;64561;44.018;10.144;2023-02-11T07:36:28;12.85;;;6.72;;
75885;SDS011;64561;44.018;10.144;2023-02-11T07:38:57;14.05;;;7.03;;
75885;SDS011;64561;44.018;10.144;2023-02-11T07:41:25;12.40;;;6.82;;
75885;SDS011;64561;44.018;10.144;2023-02-11T07:43:53;13.15;;;6.32;;
75885;SDS011;64561;44.018;10.144;2023-02-11T07:46:21;10.48;;;6.65;;
75885;SDS011;64561;44.018;10.144;2023-02-11T07:48:50;11.65;;;5.70;;
75885;SDS011;64561;44.018;10.144;2023-02-11T07:51:19;13.00;;;7.80;;
75885;SDS011;64561;44.018;10.144;2023-02-11T07:53:50;16.65;;;10.40;;
75885;SDS011;64561;44.018;10.144;2023-02-11T07:56:18;18.40;;;11.02;;
75885;SDS011;64561;44.018;10.144;2023-02-11T07:58:45;16.58;;;9.32;;
75885;SDS011;64561;44.018;10.144;2023-02-11T08:01:17;17.98;;;9.60;;
75885;SDS011;64561;44.018;10.144;2023-02-11T08:03:51;15.50;;;9.25;;
75885;SDS011;64561;44.018;10.144;2023-02-11T08:06:19;18.45;;;9.45;;
75885;SDS011;64561;44.018;10.144;2023-02-11T08:08:47;18.63;;;12.25;;
75885;SDS011;64561;44.018;10.144;2023-02-11T08:11:15;28.30;;;14.82;;
75885;SDS011;64561;44.018;10.144;2023-02-11T08:13:43;22.25;;;14.63;;
75885;SDS011;64561;44.018;10.144;2023-02-11T08:16:21;24.67;;;15.38;;
75885;SDS011;64561;44.018;10.144;2023-02-11T08:18:49;26.58;;;15.30;;
75885;SDS011;64561;44.018;10.144;2023-02-11T08:21:17;28.63;;;15.93;;
75885;SDS011;64561;44.018;10.144;2023-02-11T08:23:45;26.27;;;15.63;;
75885;SDS011;64561;44.018;10.144;2023-02-11T08:26:19;26.15;;;15.25;;
75885;SDS011;64561;44.018;10.144;2023-02-11T08:28:48;27.67;;;18.08;;
75885;SDS011;64561;44.018;10.144;2023-02-11T08:31:20;30.40;;;17.52;;
75885;SDS011;64561;44.018;10.144;2023-02-11T08:33:49;25.75;;;16.25;;
75885;SDS011;64561;44.018;10.144;2023-02-11T08:36:18;29.38;;;16.17;;
75885;SDS011;64561;44.018;10.144;2023-02-11T08:38:47;24.85;;;15.70;;
75885;SDS011;64561;44.018;10.144;2023-02-11T08:41:14;26.08;;;15.02;;
75885;SDS011;64561;44.018;10.144;2023-02-11T08:43:42;28.55;;;15.75;;
75885;SDS011;64561;44.018;10.144;2023-02-11T08:46:11;29.83;;;18.33;;
75885;SDS011;64561;44.018;10.144;2023-02-11T08:48:41;28.23;;;19.50;;
75885;SDS011;64561;44.018;10.144;2023-02-11T08:51:09;33.63;;;21.40;;
75885;SDS011;64561;44.018;10.144;2023-02-11T08:53:39;36.72;;;21.88;;
75885;SDS011;64561;44.018;10.144;2023-02-11T08:56:06;36.03;;;21.83;;
75885;SDS011;64561;44.018;10.144;2023-02-11T08:58:34;31.10;;;19.90;;
75885;SDS011;64561;44.018;10.144;2023-02-11T09:01:01;23.73;;;16.50;;
75885;SDS011;64561;44.018;10.144;2023-02-11T09:03:28;31.15;;;19.33;;
75885;SDS011;64561;44.018;10.144;2023-02-11T09:05:55;31.27;;;21.23;;
75885;SDS011;64561;44.018;10.144;2023-02-11T09:08:22;23.00;;;15.27;;
75885;SDS011;64561;44.018;10.144;2023-02-11T09:10:49;30.10;;;17.35;;
75885;SDS011;64561;44.018;10.144;2023-02-11T09:13:17;23.45;;;15.88;;
75885;SDS011;64561;44.018;10.144;2023-02-11T09:15:44;24.50;;;16.90;;
75885;SDS011;64561;44.018;10.144;2023-02-11T09:18:12;31.90;;;19.90;;
75885;SDS011;64561;44.018;10.144;2023-02-11T09:20:39;24.80;;;16.30;;
75885;SDS011;64561;44.018;10.144;2023-02-11T09:23:06;33.70;;;16.55;;
75885;SDS011;64561;44.018;10.144;2023-02-11T09:25:33;26.98;;;14.55;;
75885;SDS011;64561;44.018;10.144;2023-02-11T09:28:00;21.90;;;14.38;;
75885;SDS011;64561;44.018;10.144;2023-02-11T09:30:27;23.10;;;13.82;;
75885;SDS011;64561;44.018;10.144;2023-02-11T09:32:54;24.52;;;14.38;;
75885;SDS011;64561;44.018;10.144;2023-02-11T09:35:20;32.25;;;20.30;;
75885;SDS011;64561;44.018;10.144;2023-02-11T09:37:47;30.98;;;19.48;;
75885;SDS011;64561;44.018;10.144;2023-02-11T09:40:14;25.85;;;18.02;;
75885;SDS011;64561;44.018;10.144;2023-02-11T09:42:44;31.90;;;20.10;;
75885;SDS011;64561;44.018;10.144;2023-02-11T09:45:33;30.88;;;20.45;;
75885;SDS011;64561;44.018;10.144;2023-02-11T09:48:03;35.83;;;20.98;;
75885;SDS011;64561;44.018;10.144;2023-02-11T09:50:34;37.58;;;21.33;;
75885;SDS011;64561;44.018;10.144;2023-02-11T09:55:47;33.92;;;18.88;;
75885;SDS011;64561;44.018;10.144;2023-02-11T09:58:37;44.72;;;24.58;;
75885;SDS011;64561;44.018;10.144;2023-02-11T10:06:40;33.42;;;19.88;;
75885;SDS011;64561;44.018;10.144;2023-02-11T10:23:27;12.55;;;8.93;;
75885;SDS011;64561;44.018;10.144;2023-02-11T10:25:56;15.10;;;8.73;;
75885;SDS011;64561;44.018;10.144;2023-02-11T10:28:33;13.73;;;8.30;;
75885;SDS011;64561;44.018;10.144;2023-02-11T10:31:04;15.88;;;9.38;;
75885;SDS011;64561;44.018;10.144;2023-02-11T10:33:37;19.50;;;10.20;;
75885;SDS011;64561;44.018;10.144;2023-02-11T10:36:09;15.27;;;10.00;;
75885;SDS011;64561;44.018;10.144;2023-02-11T10:38:38;17.58;;;10.25;;
75885;SDS011;64561;44.018;10.144;2023-02-11T10:41:05;16.35;;;9.77;;
75885;SDS011;64561;44.018;10.144;2023-02-11T10:43:32;14.18;;;9.88;;
75885;SDS011;64561;44.018;10.144;2023-02-11T10:46:01;15.38;;;10.43;;
75885;SDS011;64561;44.018;10.144;2023-02-11T10:48:49;16.17;;;10.70;;
75885;SDS011;64561;44.018;10.144;2023-02-11T10:51:29;20.80;;;12.88;;
75885;SDS011;64561;44.018;10.144;2023-02-11T10:56:29;25.00;;;12.27;;
75885;SDS011;64561;44.018;10.144;2023-02-11T10:59:00;16.23;;;10.38;;
75885;SDS011;64561;44.018;10.144;2023-02-11T11:01:40;15.65;;;9.40;;
75885;SDS011;64561;44.018;10.144;2023-02-11T11:17:41;13.18;;;7.85;;
75885;SDS011;64561;44.018;10.144;2023-02-11T11:22:50;18.25;;;8.85;;
75885;SDS011;64561;44.018;10.144;2023-02-11T11:25:26;18.67;;;9.80;;
75885;SDS011;64561;44.018;10.144;2023-02-11T11:27:56;18.88;;;9.50;;
75885;SDS011;64561;44.018;10.144;2023-02-11T11:30:38;13.77;;;7.93;;
75885;SDS011;64561;44.018;10.144;2023-02-11T11:33:27;13.63;;;7.88;;
75885;SDS011;64561;44.018;10.144;2023-02-11T11:38:32;13.43;;;7.68;;
75885;SDS011;64561;44.018;10.144;2023-02-11T11:41:35;15.75;;;8.30;;
75885;SDS011;64561;44.018;10.144;2023-02-11T11:46:30;17.30;;;8.75;;
75885;SDS011;64561;44.018;10.144;2023-02-11T11:55:11;14.70;;;7.47;;
75885;SDS011;64561;44.018;10.144;2023-02-11T11:57:47;10.85;;;6.15;;
75885;SDS011;64561;44.018;10.144;2023-02-11T12:00:19;10.98;;;6.80;;
75885;SDS011;64561;44.018;10.144;2023-02-11T12:27:59;9.90;;;5.30;;
75885;SDS011;64561;44.018;10.144;2023-02-11T12:39:16;8.05;;;5.68;;
75885;SDS011;64561;44.018;10.144;2023-02-11T12:45:02;12.27;;;6.40;;
75885;SDS011;64561;44.018;10.144;2023-02-11T12:50:55;9.77;;;5.68;;
75885;SDS011;64561;44.018;10.144;2023-02-11T12:56:12;7.82;;;5.35;;
75885;SDS011;64561;44.018;10.144;2023-02-11T12:58:45;7.97;;;5.35;;
75885;SDS011;64561;44.018;10.144;2023-02-11T13:01:25;8.52;;;4.85;;
75885;SDS011;64561;44.018;10.144;2023-02-11T13:06:51;9.38;;;5.72;;
75885;SDS011;64561;44.018;10.144;2023-02-11T13:09:42;9.70;;;5.10;;
75885;SDS011;64561;44.018;10.144;2023-02-11T13:12:17;9.70;;;5.10;;
75885;SDS011;64561;44.018;10.144;2023-02-11T13:15:08;9.38;;;5.00;;
75885;SDS011;64561;44.018;10.144;2023-02-11T13:20:46;7.75;;;4.60;;
75885;SDS011;64561;44.018;10.144;2023-02-11T13:26:01;10.80;;;5.63;;
75885;SDS011;64561;44.018;10.144;2023-02-11T13:31:10;11.13;;;5.47;;
75885;SDS011;64561;44.018;10.144;2023-02-11T13:33:39;10.98;;;5.93;;
75885;SDS011;64561;44.018;10.144;2023-02-11T13:38:35;12.85;;;6.72;;
75885;SDS011;64561;44.018;10.144;2023-02-11T13:43:34;10.02;;;5.38;;
75885;SDS011;64561;44.018;10.144;2023-02-11T13:46:05;11.43;;;5.95;;
75885;SDS011;64561;44.018;10.144;2023-02-11T13:48:47;10.98;;;6.22;;
75885;SDS011;64561;44.018;10.144;2023-02-11T13:51:33;15.65;;;9.35;;
75885;SDS011;64561;44.018;10.144;2023-02-11T13:54:05;10.82;;;6.80;;
75885;SDS011;64561;44.018;10.144;2023-02-11T13:56:34;11.63;;;6.25;;
75885;SDS011;64561;44.018;10.144;2023-02-11T14:10:56;10.18;;;6.10;;
75885;SDS011;64561;44.018;10.144;2023-02-11T14:13:32;8.40;;;6.20;;
75885;SDS011;64561;44.018;10.144;2023-02-11T14:29:21;8.13;;;4.78;;
75885;SDS011;64561;44.018;10.144;2023-02-11T14:43:11;13.23;;;5.93;;
75885;SDS011;64561;44.018;10.144;2023-02-11T14:45:42;10.52;;;6.18;;
75885;SDS011;64561;44.018;10.144;2023-02-11T14:48:14;8.13;;;5.35;;
75885;SDS011;64561;44.018;10.144;2023-02-11T14:50:47;8.93;;;5.75;;
75885;SDS011;64561;44.018;10.144;2023-02-11T14:53:18;18.33;;;11.00;;
75885;SDS011;64561;44.018;10.144;2023-02-11T14:58:29;11.93;;;7.20;;
75885;SDS011;64561;44.018;10.144;2023-02-11T15:00:58;10.18;;;6.13;;
75885;SDS011;64561;44.018;10.144;2023-02-11T15:05:59;8.48;;;5.35;;
75885;SDS011;64561;44.018;10.144;2023-02-11T15:08:34;10.13;;;6.63;;
75885;SDS011;64561;44.018;10.144;2023-02-11T15:11:06;12.43;;;6.85;;
75885;SDS011;64561;44.018;10.144;2023-02-11T15:13:37;8.20;;;5.07;;
75885;SDS011;64561;44.018;10.144;2023-02-11T15:16:07;10.73;;;6.18;;
75885;SDS011;64561;44.018;10.144;2023-02-11T15:18:38;9.48;;;6.90;;
75885;SDS011;64561;44.018;10.144;2023-02-11T15:21:09;11.98;;;7.28;;
75885;SDS011;64561;44.018;10.144;2023-02-11T15:23:36;11.25;;;6.68;;
75885;SDS011;64561;44.018;10.144;2023-02-11T15:26:11;8.68;;;6.13;;
75885;SDS011;64561;44.018;10.144;2023-02-11T15:28:43;10.48;;;6.03;;
75885;SDS011;64561;44.018;10.144;2023-02-11T15:31:18;10.18;;;5.60;;
75885;SDS011;64561;44.018;10.144;2023-02-11T15:33:49;11.60;;;6.78;;
75885;SDS011;64561;44.018;10.144;2023-02-11T15:36:17;11.27;;;7.35;;
75885;SDS011;64561;44.018;10.144;2023-02-11T15:39:14;13.05;;;6.75;;
75885;SDS011;64561;44.018;10.144;2023-02-11T15:42:14;13.48;;;7.10;;
75885;SDS011;64561;44.018;10.144;2023-02-11T15:47:50;9.38;;;5.05;;
75885;SDS011;64561;44.018;10.144;2023-02-11T15:50:20;9.23;;;5.25;;
75885;SDS011;64561;44.018;10.144;2023-02-11T15:52:52;13.30;;;7.30;;
75885;SDS011;64561;44.018;10.144;2023-02-11T15:55:21;11.75;;;7.28;;
75885;SDS011;64561;44.018;10.144;2023-02-11T15:57:55;9.82;;;6.18;;
75885;SDS011;64561;44.018;10.144;2023-02-11T16:00:33;10.25;;;5.68;;
75885;SDS011;64561;44.018;10.144;2023-02-11T16:03:02;8.02;;;5.50;;
75885;SDS011;64561;44.018;10.144;2023-02-11T16:05:34;10.38;;;7.20;;
75885;SDS011;64561;44.018;10.144;2023-02-11T16:08:22;9.38;;;6.43;;
75885;SDS011;64561;44.018;10.144;2023-02-11T16:10:57;10.07;;;6.00;;
75885;SDS011;64561;44.018;10.144;2023-02-11T16:13:29;12.77;;;6.55;;
75885;SDS011;64561;44.018;10.144;2023-02-11T16:16:02;19.05;;;8.80;;
75885;SDS011;64561;44.018;10.144;2023-02-11T16:18:44;13.45;;;8.57;;
75885;SDS011;64561;44.018;10.144;2023-02-11T16:21:30;10.13;;;6.35;;
75885;SDS011;64561;44.018;10.144;2023-02-11T16:24:15;9.57;;;6.20;;
75885;SDS011;64561;44.018;10.144;2023-02-11T16:26:49;9.88;;;6.15;;
75885;SDS011;64561;44.018;10.144;2023-02-11T16:29:22;22.10;;;9.38;;
75885;SDS011;64561;44.018;10.144;2023-02-11T16:32:04;11.98;;;7.47;;
75885;SDS011;64561;44.018;10.144;2023-02-11T16:34:34;11.70;;;7.07;;
75885;SDS011;64561;44.018;10.144;2023-02-11T16:37:02;12.00;;;7.70;;
75885;SDS011;64561;44.018;10.144;2023-02-11T16:39:31;12.80;;;7.60;;
75885;SDS011;64561;44.018;10.144;2023-02-11T16:41:59;14.15;;;8.68;;
75885;SDS011;64561;44.018;10.144;2023-02-11T16:44:27;15.52;;;9.63;;
75885;SDS011;64561;44.018;10.144;2023-02-11T16:46:57;21.95;;;12.10;;
75885;SDS011;64561;44.018;10.144;2023-02-11T16:49:25;21.27;;;12.45;;
75885;SDS011;64561;44.018;10.144;2023-02-11T16:51:57;23.13;;;12.75;;
75885;SDS011;64561;44.018;10.144;2023-02-11T16:54:27;27.40;;;16.52;;
75885;SDS011;64561;44.018;10.144;2023-02-11T16:56:54;31.50;;;20.70;;
75885;SDS011;64561;44.018;10.144;2023-02-11T16:59:22;33.85;;;21.02;;
75885;SDS011;64561;44.018;10.144;2023-02-11T17:01:49;36.33;;;23.58;;
75885;SDS011;64561;44.018;10.144;2023-02-11T17:06:47;32.58;;;22.73;;
75885;SDS011;64561;44.018;10.144;2023-02-11T17:09:18;28.85;;;19.65;;
75885;SDS011;64561;44.018;10.144;2023-02-11T17:11:46;25.75;;;17.33;;
75885;SDS011;64561;44.018;10.144;2023-02-11T17:14:13;21.77;;;14.85;;
75885;SDS011;64561;44.018;10.144;2023-02-11T17:16:41;23.05;;;15.15;;
75885;SDS011;64561;44.018;10.144;2023-02-11T17:19:10;20.77;;;13.60;;
75885;SDS011;64561;44.018;10.144;2023-02-11T17:21:40;19.98;;;12.98;;
75885;SDS011;64561;44.018;10.144;2023-02-11T17:24:10;17.80;;;11.88;;
75885;SDS011;64561;44.018;10.144;2023-02-11T17:26:37;18.33;;;11.80;;
75885;SDS011;64561;44.018;10.144;2023-02-11T17:29:05;21.20;;;12.75;;
75885;SDS011;64561;44.018;10.144;2023-02-11T17:31:38;18.38;;;12.98;;
75885;SDS011;64561;44.018;10.144;2023-02-11T17:34:06;28.20;;;16.27;;
75885;SDS011;64561;44.018;10.144;2023-02-11T17:36:33;25.25;;;16.05;;
75885;SDS011;64561;44.018;10.144;2023-02-11T17:39:01;35.58;;;22.05;;
75885;SDS011;64561;44.018;10.144;2023-02-11T17:41:33;34.58;;;21.15;;
75885;SDS011;64561;44.018;10.144;2023-02-11T17:44:01;34.30;;;22.42;;
75885;SDS011;64561;44.018;10.144;2023-02-11T17:46:28;33.03;;;22.98;;
75885;SDS011;64561;44.018;10.144;2023-02-11T17:48:56;31.67;;;21.88;;